Terminal Aerodrome Forecast
Issued by NWS Grand Junction, CO

Home | Current Version | Previous Version | Text Only | Print | Product List | Glossary On
Versions: 1 2 3 4 5 6 7 8 9 10 11 12 13 14 15 16 17 18 19 20 21 22 23 24
000
FTUS45 KGJT 301736
TAFGJT
TAF
KGJT 301736Z 3018/0118 24005KT P6SM VCSH FEW045 OVC060
     FM302000 31006KT P6SM VCTS FEW050 SCT070CB BKN120
     FM010200 09004KT P6SM SCT110 SCT150
     FM011000 15005KT P6SM SCT140=

USA.gov is the U.S. government's official web portal to all federal, state and local government web resources and services.